sensor_id;sensor_type;location;lat;lon;timestamp;pressure;altitude;pressure_sealevel;temperature;humidity
9746;BME280;4912;50.836;12.958;2023-04-25T00:00:56;96971.78;;;9.27;77.28
9746;BME280;4912;50.836;12.958;2023-04-25T00:03:27;96971.59;;;9.31;76.99
9746;BME280;4912;50.836;12.958;2023-04-25T00:05:58;96980.06;;;9.27;76.91
9746;BME280;4912;50.836;12.958;2023-04-25T00:08:32;96978.09;;;9.13;77.44
9746;BME280;4912;50.836;12.958;2023-04-25T00:11:04;96973.16;;;9.17;77.05
9746;BME280;4912;50.836;12.958;2023-04-25T00:13:34;96978.00;;;9.22;76.50
9746;BME280;4912;50.836;12.958;2023-04-25T00:16:07;96982.94;;;9.18;76.73
9746;BME280;4912;50.836;12.958;2023-04-25T00:18:41;96977.53;;;9.24;76.54
9746;BME280;4912;50.836;12.958;2023-04-25T00:21:16;96977.78;;;9.26;75.82
9746;BME280;4912;50.836;12.958;2023-04-25T00:23:46;96984.16;;;9.32;75.56
9746;BME280;4912;50.836;12.958;2023-04-25T00:26:18;96980.22;;;9.38;74.92
9746;BME280;4912;50.836;12.958;2023-04-25T00:28:49;96979.22;;;9.36;74.94
9746;BME280;4912;50.836;12.958;2023-04-25T00:31:22;96974.59;;;9.48;74.42
9746;BME280;4912;50.836;12.958;2023-04-25T00:33:53;96972.25;;;9.40;74.49
9746;BME280;4912;50.836;12.958;2023-04-25T00:36:24;96975.19;;;9.37;74.38
9746;BME280;4912;50.836;12.958;2023-04-25T00:38:55;96973.00;;;9.41;74.06
9746;BME280;4912;50.836;12.958;2023-04-25T00:41:26;96972.50;;;9.42;74.08
9746;BME280;4912;50.836;12.958;2023-04-25T00:43:57;96968.25;;;9.41;73.82
9746;BME280;4912;50.836;12.958;2023-04-25T00:46:32;96964.63;;;9.35;74.21
9746;BME280;4912;50.836;12.958;2023-04-25T00:49:02;96966.06;;;9.31;74.35
9746;BME280;4912;50.836;12.958;2023-04-25T00:51:33;96974.16;;;9.34;74.33
9746;BME280;4912;50.836;12.958;2023-04-25T00:54:04;96968.25;;;9.41;74.02
9746;BME280;4912;50.836;12.958;2023-04-25T00:56:35;96973.16;;;9.52;73.49
9746;BME280;4912;50.836;12.958;2023-04-25T00:59:07;96973.72;;;9.56;73.37
9746;BME280;4912;50.836;12.958;2023-04-25T01:01:43;96961.63;;;9.54;73.29
9746;BME280;4912;50.836;12.958;2023-04-25T01:04:13;96959.91;;;9.56;73.35
9746;BME280;4912;50.836;12.958;2023-04-25T01:06:45;96961.81;;;9.50;73.65
9746;BME280;4912;50.836;12.958;2023-04-25T01:09:19;96955.78;;;9.31;74.52
9746;BME280;4912;50.836;12.958;2023-04-25T01:11:50;96958.75;;;9.28;74.86
9746;BME280;4912;50.836;12.958;2023-04-25T01:14:21;96953.84;;;9.17;75.41
9746;BME280;4912;50.836;12.958;2023-04-25T01:16:54;96948.03;;;9.15;75.50
9746;BME280;4912;50.836;12.958;2023-04-25T01:19:25;96956.97;;;9.10;76.21
9746;BME280;4912;50.836;12.958;2023-04-25T01:22:00;96958.91;;;9.04;76.79
9746;BME280;4912;50.836;12.958;2023-04-25T01:24:34;96955.44;;;9.09;76.57
9746;BME280;4912;50.836;12.958;2023-04-25T01:27:05;96958.97;;;9.10;76.63
9746;BME280;4912;50.836;12.958;2023-04-25T01:29:36;96952.69;;;9.09;76.95
9746;BME280;4912;50.836;12.958;2023-04-25T01:32:07;96949.53;;;9.16;76.72
9746;BME280;4912;50.836;12.958;2023-04-25T01:34:38;96948.03;;;9.15;76.74
9746;BME280;4912;50.836;12.958;2023-04-25T01:37:12;96943.91;;;9.25;76.44
9746;BME280;4912;50.836;12.958;2023-04-25T01:39:44;96949.16;;;9.23;76.59
9746;BME280;4912;50.836;12.958;2023-04-25T01:42:15;96937.91;;;9.27;76.29
9746;BME280;4912;50.836;12.958;2023-04-25T01:44:47;96948.75;;;9.30;76.39
9746;BME280;4912;50.836;12.958;2023-04-25T01:47:17;96948.56;;;9.34;75.87
9746;BME280;4912;50.836;12.958;2023-04-25T01:49:48;96941.13;;;9.25;76.46
9746;BME280;4912;50.836;12.958;2023-04-25T01:52:21;96946.66;;;9.25;76.50
9746;BME280;4912;50.836;12.958;2023-04-25T01:54:52;96945.03;;;9.33;76.41
9746;BME280;4912;50.836;12.958;2023-04-25T01:57:24;96941.59;;;9.38;76.04
9746;BME280;4912;50.836;12.958;2023-04-25T01:59:58;96946.34;;;9.38;76.15
9746;BME280;4912;50.836;12.958;2023-04-25T02:02:39;96939.03;;;9.35;76.20
9746;BME280;4912;50.836;12.958;2023-04-25T02:05:25;96939.13;;;9.26;76.81
9746;BME280;4912;50.836;12.958;2023-04-25T02:07:59;96937.34;;;9.23;77.35
9746;BME280;4912;50.836;12.958;2023-04-25T02:10:29;96933.31;;;9.38;76.56
9746;BME280;4912;50.836;12.958;2023-04-25T02:13:14;96940.34;;;9.39;76.33
9746;BME280;4912;50.836;12.958;2023-04-25T02:16:14;96941.09;;;9.40;76.26
9746;BME280;4912;50.836;12.958;2023-04-25T02:18:46;96946.00;;;9.30;76.94
9746;BME280;4912;50.836;12.958;2023-04-25T02:21:19;96945.56;;;9.17;77.14
9746;BME280;4912;50.836;12.958;2023-04-25T02:23:53;96942.88;;;9.08;77.97
9746;BME280;4912;50.836;12.958;2023-04-25T02:26:23;96944.34;;;9.03;78.30
9746;BME280;4912;50.836;12.958;2023-04-25T02:28:54;96936.06;;;9.03;78.66
9746;BME280;4912;50.836;12.958;2023-04-25T02:31:25;96946.25;;;8.97;78.83
9746;BME280;4912;50.836;12.958;2023-04-25T02:33:57;96946.16;;;9.07;78.55
9746;BME280;4912;50.836;12.958;2023-04-25T02:36:28;96930.88;;;9.26;77.85
9746;BME280;4912;50.836;12.958;2023-04-25T02:39:03;96929.84;;;9.43;76.85
9746;BME280;4912;50.836;12.958;2023-04-25T02:41:34;96928.22;;;9.52;76.45
9746;BME280;4912;50.836;12.958;2023-04-25T02:44:05;96925.25;;;9.55;76.02
9746;BME280;4912;50.836;12.958;2023-04-25T02:46:37;96924.22;;;9.53;75.87
9746;BME280;4912;50.836;12.958;2023-04-25T02:49:07;96927.66;;;9.48;76.04
9746;BME280;4912;50.836;12.958;2023-04-25T02:51:38;96928.25;;;9.37;76.45
9746;BME280;4912;50.836;12.958;2023-04-25T02:54:12;96924.75;;;9.36;76.48
9746;BME280;4912;50.836;12.958;2023-04-25T02:56:46;96921.50;;;9.38;76.87
9746;BME280;4912;50.836;12.958;2023-04-25T02:59:23;96917.78;;;9.41;76.65
9746;BME280;4912;50.836;12.958;2023-04-25T03:01:54;96919.16;;;9.51;76.07
9746;BME280;4912;50.836;12.958;2023-04-25T03:04:24;96916.63;;;9.48;76.50
9746;BME280;4912;50.836;12.958;2023-04-25T03:06:55;96917.47;;;9.54;76.43
9746;BME280;4912;50.836;12.958;2023-04-25T03:09:31;96916.88;;;9.50;76.11
9746;BME280;4912;50.836;12.958;2023-04-25T03:12:03;96922.75;;;9.57;76.18
9746;BME280;4912;50.836;12.958;2023-04-25T03:14:34;96919.25;;;9.57;75.79
9746;BME280;4912;50.836;12.958;2023-04-25T03:17:05;96917.78;;;9.61;75.73
9746;BME280;4912;50.836;12.958;2023-04-25T03:19:36;96910.53;;;9.64;75.05
9746;BME280;4912;50.836;12.958;2023-04-25T03:22:06;96907.44;;;9.76;74.11
9746;BME280;4912;50.836;12.958;2023-04-25T03:24:39;96906.66;;;9.96;73.04
9746;BME280;4912;50.836;12.958;2023-04-25T03:27:13;96913.44;;;9.95;72.84
9746;BME280;4912;50.836;12.958;2023-04-25T03:29:44;96910.94;;;9.97;72.88
9746;BME280;4912;50.836;12.958;2023-04-25T03:32:15;96909.00;;;10.03;72.92
9746;BME280;4912;50.836;12.958;2023-04-25T03:34:46;96908.56;;;10.10;72.53
9746;BME280;4912;50.836;12.958;2023-04-25T03:37:16;96915.75;;;10.22;71.59
9746;BME280;4912;50.836;12.958;2023-04-25T03:39:50;96913.09;;;10.13;70.57
9746;BME280;4912;50.836;12.958;2023-04-25T03:42:23;96917.81;;;10.27;70.75
9746;BME280;4912;50.836;12.958;2023-04-25T03:44:56;96908.41;;;10.40;69.68
9746;BME280;4912;50.836;12.958;2023-04-25T03:47:26;96910.53;;;10.56;69.28
9746;BME280;4912;50.836;12.958;2023-04-25T03:49:57;96912.13;;;10.62;69.25
9746;BME280;4912;50.836;12.958;2023-04-25T03:52:29;96908.81;;;10.58;69.01
9746;BME280;4912;50.836;12.958;2023-04-25T03:55:03;96913.50;;;10.47;69.93
9746;BME280;4912;50.836;12.958;2023-04-25T03:57:36;96904.06;;;10.33;70.99
9746;BME280;4912;50.836;12.958;2023-04-25T04:00:08;96906.09;;;10.38;71.79
9746;BME280;4912;50.836;12.958;2023-04-25T04:02:39;96907.88;;;10.36;72.65
9746;BME280;4912;50.836;12.958;2023-04-25T04:05:12;96913.66;;;10.38;72.90
9746;BME280;4912;50.836;12.958;2023-04-25T04:07:49;96912.69;;;10.41;73.13
9746;BME280;4912;50.836;12.958;2023-04-25T04:10:26;96910.69;;;10.41;73.17
9746;BME280;4912;50.836;12.958;2023-04-25T04:12:59;96913.44;;;10.41;73.46
9746;BME280;4912;50.836;12.958;2023-04-25T04:15:30;96912.94;;;10.43;73.58
9746;BME280;4912;50.836;12.958;2023-04-25T04:18:01;96916.75;;;10.45;73.13
9746;BME280;4912;50.836;12.958;2023-04-25T04:20:33;96921.13;;;10.32;73.23
9746;BME280;4912;50.836;12.958;2023-04-25T04:23:05;96920.63;;;10.33;73.45
9746;BME280;4912;50.836;12.958;2023-04-25T04:25:38;96923.47;;;10.39;73.13
9746;BME280;4912;50.836;12.958;2023-04-25T04:28:19;96921.41;;;10.34;71.33
9746;BME280;4912;50.836;12.958;2023-04-25T04:31:12;96921.31;;;10.48;71.10
9746;BME280;4912;50.836;12.958;2023-04-25T04:33:44;96923.03;;;10.46;69.79
9746;BME280;4912;50.836;12.958;2023-04-25T04:36:16;96924.28;;;10.45;69.42
9746;BME280;4912;50.836;12.958;2023-04-25T04:38:49;96925.47;;;10.38;69.63
9746;BME280;4912;50.836;12.958;2023-04-25T04:41:35;96929.59;;;10.48;68.60
9746;BME280;4912;50.836;12.958;2023-04-25T04:44:10;96928.44;;;10.60;68.33
9746;BME280;4912;50.836;12.958;2023-04-25T04:47:09;96927.50;;;10.69;67.75
9746;BME280;4912;50.836;12.958;2023-04-25T04:50:13;96924.03;;;10.74;66.97
9746;BME280;4912;50.836;12.958;2023-04-25T04:53:04;96921.09;;;10.83;66.82
9746;BME280;4912;50.836;12.958;2023-04-25T04:55:53;96930.75;;;10.93;66.31
9746;BME280;4912;50.836;12.958;2023-04-25T04:58:52;96930.84;;;10.79;65.76
9746;BME280;4912;50.836;12.958;2023-04-25T05:01:46;96938.94;;;10.82;65.11
9746;BME280;4912;50.836;12.958;2023-04-25T05:04:43;96942.09;;;10.70;64.11
9746;BME280;4912;50.836;12.958;2023-04-25T05:07:25;96942.25;;;10.60;64.76
9746;BME280;4912;50.836;12.958;2023-04-25T05:10:08;96940.53;;;10.63;64.56
9746;BME280;4912;50.836;12.958;2023-04-25T05:13:04;96936.53;;;10.64;64.16
9746;BME280;4912;50.836;12.958;2023-04-25T05:16:00;96927.41;;;10.58;64.06
9746;BME280;4912;50.836;12.958;2023-04-25T05:18:39;96934.03;;;10.66;63.64
9746;BME280;4912;50.836;12.958;2023-04-25T05:21:29;96940.59;;;10.68;63.24
9746;BME280;4912;50.836;12.958;2023-04-25T05:24:09;96934.00;;;10.35;63.47
9746;BME280;4912;50.836;12.958;2023-04-25T05:26:58;96939.03;;;10.36;64.09
9746;BME280;4912;50.836;12.958;2023-04-25T05:29:57;96935.06;;;10.68;63.70
9746;BME280;4912;50.836;12.958;2023-04-25T05:32:38;96937.84;;;11.00;63.19
9746;BME280;4912;50.836;12.958;2023-04-25T05:35:09;96934.44;;;11.16;61.02
9746;BME280;4912;50.836;12.958;2023-04-25T05:37:44;96945.59;;;11.33;60.57
9746;BME280;4912;50.836;12.958;2023-04-25T05:40:18;96946.38;;;11.33;59.60
9746;BME280;4912;50.836;12.958;2023-04-25T05:43:10;96938.06;;;11.33;59.08
9746;BME280;4912;50.836;12.958;2023-04-25T05:46:03;96945.16;;;11.40;58.55
9746;BME280;4912;50.836;12.958;2023-04-25T05:49:06;96946.97;;;10.80;60.22
9746;BME280;4912;50.836;12.958;2023-04-25T05:51:57;96946.50;;;10.82;60.81
9746;BME280;4912;50.836;12.958;2023-04-25T05:54:45;96955.13;;;10.89;61.40
9746;BME280;4912;50.836;12.958;2023-04-25T05:57:20;96957.88;;;10.89;60.92
9746;BME280;4912;50.836;12.958;2023-04-25T05:59:53;96942.25;;;11.18;60.62
9746;BME280;4912;50.836;12.958;2023-04-25T06:02:39;96947.09;;;11.28;59.91
9746;BME280;4912;50.836;12.958;2023-04-25T06:05:15;96959.09;;;11.57;59.39
9746;BME280;4912;50.836;12.958;2023-04-25T06:07:47;96955.78;;;11.47;58.06
9746;BME280;4912;50.836;12.958;2023-04-25T06:10:17;96959.59;;;11.55;58.41
9746;BME280;4912;50.836;12.958;2023-04-25T06:12:48;96967.25;;;11.71;58.55
9746;BME280;4912;50.836;12.958;2023-04-25T06:15:20;96966.41;;;11.54;57.88
9746;BME280;4912;50.836;12.958;2023-04-25T06:17:55;96963.50;;;11.37;58.50
9746;BME280;4912;50.836;12.958;2023-04-25T06:20:28;96960.72;;;11.37;58.82
9746;BME280;4912;50.836;12.958;2023-04-25T06:23:00;96965.13;;;11.55;58.44
9746;BME280;4912;50.836;12.958;2023-04-25T06:25:44;96963.03;;;11.81;57.77
9746;BME280;4912;50.836;12.958;2023-04-25T06:28:15;96962.31;;;11.86;56.05
9746;BME280;4912;50.836;12.958;2023-04-25T06:30:45;96966.41;;;12.02;55.98
9746;BME280;4912;50.836;12.958;2023-04-25T06:33:18;96966.66;;;11.99;55.73
9746;BME280;4912;50.836;12.958;2023-04-25T06:35:52;96968.91;;;11.95;55.07
9746;BME280;4912;50.836;12.958;2023-04-25T06:38:25;96968.38;;;11.90;54.92
9746;BME280;4912;50.836;12.958;2023-04-25T06:40:57;96976.47;;;11.94;56.26
9746;BME280;4912;50.836;12.958;2023-04-25T06:43:30;96969.44;;;11.62;55.30
9746;BME280;4912;50.836;12.958;2023-04-25T06:46:04;96973.66;;;11.46;55.45
9746;BME280;4912;50.836;12.958;2023-04-25T06:48:41;96975.03;;;11.25;55.97
9746;BME280;4912;50.836;12.958;2023-04-25T06:51:14;96982.59;;;11.30;55.85
9746;BME280;4912;50.836;12.958;2023-04-25T06:53:48;96981.16;;;11.40;55.96
9746;BME280;4912;50.836;12.958;2023-04-25T06:56:28;96984.75;;;11.52;55.98
9746;BME280;4912;50.836;12.958;2023-04-25T06:59:07;96975.53;;;11.29;55.77
9746;BME280;4912;50.836;12.958;2023-04-25T07:01:39;96981.44;;;11.42;55.55
9746;BME280;4912;50.836;12.958;2023-04-25T07:04:18;96987.03;;;11.53;55.80
9746;BME280;4912;50.836;12.958;2023-04-25T07:06:59;96991.38;;;11.60;54.68
9746;BME280;4912;50.836;12.958;2023-04-25T07:09:45;96981.69;;;11.81;54.31
9746;BME280;4912;50.836;12.958;2023-04-25T07:12:15;96989.22;;;11.75;53.71
9746;BME280;4912;50.836;12.958;2023-04-25T07:14:46;96995.03;;;11.77;53.17
9746;BME280;4912;50.836;12.958;2023-04-25T07:17:17;96988.00;;;11.87;54.05
9746;BME280;4912;50.836;12.958;2023-04-25T07:19:47;96984.44;;;11.75;54.39
9746;BME280;4912;50.836;12.958;2023-04-25T07:22:20;96995.78;;;11.77;55.32
9746;BME280;4912;50.836;12.958;2023-04-25T07:24:53;96988.56;;;11.54;54.05
9746;BME280;4912;50.836;12.958;2023-04-25T07:27:25;96989.00;;;11.47;53.30
9746;BME280;4912;50.836;12.958;2023-04-25T07:30:03;96995.38;;;11.59;52.94
9746;BME280;4912;50.836;12.958;2023-04-25T07:32:35;96993.69;;;11.72;51.84
9746;BME280;4912;50.836;12.958;2023-04-25T07:35:06;97005.34;;;11.76;50.95
9746;BME280;4912;50.836;12.958;2023-04-25T07:37:40;97004.13;;;11.83;50.42
9746;BME280;4912;50.836;12.958;2023-04-25T07:40:17;97005.41;;;11.87;51.12
9746;BME280;4912;50.836;12.958;2023-04-25T07:42:52;97006.59;;;11.75;51.78
9746;BME280;4912;50.836;12.958;2023-04-25T07:45:32;97008.94;;;11.88;52.66
9746;BME280;4912;50.836;12.958;2023-04-25T07:48:03;97008.19;;;11.93;51.46
9746;BME280;4912;50.836;12.958;2023-04-25T07:50:36;97007.88;;;11.80;51.75
9746;BME280;4912;50.836;12.958;2023-04-25T07:53:10;97016.44;;;11.76;51.93
9746;BME280;4912;50.836;12.958;2023-04-25T07:55:50;97013.66;;;11.45;52.40
9746;BME280;4912;50.836;12.958;2023-04-25T07:58:21;97014.97;;;11.49;53.52
9746;BME280;4912;50.836;12.958;2023-04-25T08:00:56;97015.09;;;11.66;52.93
9746;BME280;4912;50.836;12.958;2023-04-25T08:03:41;97021.00;;;11.85;53.09
9746;BME280;4912;50.836;12.958;2023-04-25T08:06:27;97019.78;;;11.92;52.13
9746;BME280;4912;50.836;12.958;2023-04-25T08:09:10;97024.91;;;11.67;52.79
9746;BME280;4912;50.836;12.958;2023-04-25T08:11:41;97032.41;;;11.61;53.38
9746;BME280;4912;50.836;12.958;2023-04-25T08:14:15;97032.59;;;11.83;53.49
9746;BME280;4912;50.836;12.958;2023-04-25T08:16:45;97033.47;;;12.77;50.47
9746;BME280;4912;50.836;12.958;2023-04-25T08:19:17;97017.53;;;14.05;48.36
9746;BME280;4912;50.836;12.958;2023-04-25T08:21:47;97010.72;;;15.70;44.48
9746;BME280;4912;50.836;12.958;2023-04-25T08:24:28;97013.28;;;16.17;42.81
9746;BME280;4912;50.836;12.958;2023-04-25T08:26:59;97020.88;;;15.02;43.07
9746;BME280;4912;50.836;12.958;2023-04-25T08:29:30;97022.75;;;14.37;45.52
9746;BME280;4912;50.836;12.958;2023-04-25T08:32:01;97023.38;;;14.07;46.46
9746;BME280;4912;50.836;12.958;2023-04-25T08:34:34;97023.19;;;13.66;47.91
9746;BME280;4912;50.836;12.958;2023-04-25T08:37:06;97034.78;;;13.03;48.93
9746;BME280;4912;50.836;12.958;2023-04-25T08:39:50;97038.72;;;12.58;50.43
9746;BME280;4912;50.836;12.958;2023-04-25T08:42:33;97042.19;;;12.36;51.47
9746;BME280;4912;50.836;12.958;2023-04-25T08:45:06;97049.19;;;12.26;52.52
9746;BME280;4912;50.836;12.958;2023-04-25T08:47:41;97046.16;;;12.24;52.72
9746;BME280;4912;50.836;12.958;2023-04-25T08:50:13;97039.41;;;12.36;52.95
9746;BME280;4912;50.836;12.958;2023-04-25T08:52:45;97053.31;;;12.47;52.81
9746;BME280;4912;50.836;12.958;2023-04-25T08:55:22;97059.66;;;12.53;52.47
9746;BME280;4912;50.836;12.958;2023-04-25T08:57:57;97064.97;;;12.62;52.29
9746;BME280;4912;50.836;12.958;2023-04-25T09:00:29;97056.41;;;12.60;51.60
9746;BME280;4912;50.836;12.958;2023-04-25T09:03:00;97063.91;;;12.49;51.04
9746;BME280;4912;50.836;12.958;2023-04-25T09:05:33;97068.00;;;12.64;50.23
9746;BME280;4912;50.836;12.958;2023-04-25T09:08:05;97067.84;;;12.96;50.59
9746;BME280;4912;50.836;12.958;2023-04-25T09:10:38;97073.16;;;13.10;49.84
9746;BME280;4912;50.836;12.958;2023-04-25T09:13:13;97066.66;;;13.19;49.72
9746;BME280;4912;50.836;12.958;2023-04-25T09:16:18;97080.47;;;13.02;50.61
9746;BME280;4912;50.836;12.958;2023-04-25T09:19:21;97077.59;;;12.63;51.07
9746;BME280;4912;50.836;12.958;2023-04-25T09:22:06;97081.53;;;12.40;53.13
9746;BME280;4912;50.836;12.958;2023-04-25T09:24:39;97083.69;;;12.19;53.75
9746;BME280;4912;50.836;12.958;2023-04-25T09:27:18;97087.47;;;12.16;54.57
9746;BME280;4912;50.836;12.958;2023-04-25T09:29:57;97095.03;;;12.16;54.84
9746;BME280;4912;50.836;12.958;2023-04-25T09:32:56;97098.47;;;12.00;55.12
9746;BME280;4912;50.836;12.958;2023-04-25T09:35:29;97102.53;;;12.04;55.89
9746;BME280;4912;50.836;12.958;2023-04-25T09:37:59;97102.97;;;11.97;55.90
9746;BME280;4912;50.836;12.958;2023-04-25T09:40:54;97109.19;;;11.81;56.46
9746;BME280;4912;50.836;12.958;2023-04-25T09:43:39;97108.25;;;11.64;56.60
9746;BME280;4912;50.836;12.958;2023-04-25T09:46:11;97111.31;;;11.66;57.47
9746;BME280;4912;50.836;12.958;2023-04-25T09:48:49;97114.84;;;11.66;57.44
9746;BME280;4912;50.836;12.958;2023-04-25T09:51:35;97121.03;;;11.56;57.09
9746;BME280;4912;50.836;12.958;2023-04-25T09:54:07;97116.63;;;11.43;57.77
9746;BME280;4912;50.836;12.958;2023-04-25T09:56:48;97108.03;;;11.36;58.25
9746;BME280;4912;50.836;12.958;2023-04-25T09:59:24;97105.25;;;11.36;58.11
9746;BME280;4912;50.836;12.958;2023-04-25T10:01:56;97120.13;;;11.38;57.86
9746;BME280;4912;50.836;12.958;2023-04-25T10:04:35;97106.41;;;11.55;57.95
9746;BME280;4912;50.836;12.958;2023-04-25T10:07:14;97117.25;;;11.84;57.42
9746;BME280;4912;50.836;12.958;2023-04-25T10:09:47;97108.34;;;12.06;56.46
9746;BME280;4912;50.836;12.958;2023-04-25T10:12:19;97117.22;;;12.16;55.97
9746;BME280;4912;50.836;12.958;2023-04-25T10:14:54;97122.28;;;12.17;56.37
9746;BME280;4912;50.836;12.958;2023-04-25T10:17:26;97118.03;;;12.27;55.56
9746;BME280;4912;50.836;12.958;2023-04-25T10:19:57;97118.75;;;12.17;55.40
9746;BME280;4912;50.836;12.958;2023-04-25T10:22:32;97118.84;;;11.97;55.64
9746;BME280;4912;50.836;12.958;2023-04-25T10:25:07;97130.06;;;11.76;56.55
9746;BME280;4912;50.836;12.958;2023-04-25T10:27:38;97125.84;;;11.61;57.36
9746;BME280;4912;50.836;12.958;2023-04-25T10:30:14;97125.84;;;11.61;58.06
9746;BME280;4912;50.836;12.958;2023-04-25T10:32:45;97131.69;;;11.37;58.56
9746;BME280;4912;50.836;12.958;2023-04-25T10:35:25;97136.16;;;11.29;59.99
9746;BME280;4912;50.836;12.958;2023-04-25T10:38:00;97137.28;;;11.17;61.34
9746;BME280;4912;50.836;12.958;2023-04-25T10:40:34;97142.66;;;11.00;61.98
9746;BME280;4912;50.836;12.958;2023-04-25T10:43:35;97153.72;;;11.00;62.50
9746;BME280;4912;50.836;12.958;2023-04-25T10:46:25;97154.69;;;10.97;62.69
9746;BME280;4912;50.836;12.958;2023-04-25T10:49:00;97159.03;;;11.03;61.69
9746;BME280;4912;50.836;12.958;2023-04-25T10:51:32;97152.22;;;10.99;61.05
9746;BME280;4912;50.836;12.958;2023-04-25T10:54:22;97153.72;;;11.00;61.05
9746;BME280;4912;50.836;12.958;2023-04-25T10:56:53;97159.03;;;11.03;61.23
9746;BME280;4912;50.836;12.958;2023-04-25T10:59:25;97162.34;;;11.07;60.54
9746;BME280;4912;50.836;12.958;2023-04-25T11:01:58;97171.94;;;11.06;60.86
9746;BME280;4912;50.836;12.958;2023-04-25T11:04:31;97166.09;;;11.04;60.65
9746;BME280;4912;50.836;12.958;2023-04-25T11:07:09;97167.81;;;11.22;60.53
9746;BME280;4912;50.836;12.958;2023-04-25T11:09:43;97169.97;;;11.13;59.46
9746;BME280;4912;50.836;12.958;2023-04-25T11:12:15;97178.97;;;11.07;59.26
9746;BME280;4912;50.836;12.958;2023-04-25T11:14:48;97177.66;;;11.03;59.75
9746;BME280;4912;50.836;12.958;2023-04-25T11:17:24;97176.75;;;11.12;59.88
9746;BME280;4912;50.836;12.958;2023-04-25T11:19:55;97180.00;;;11.30;58.97
9746;BME280;4912;50.836;12.958;2023-04-25T11:22:27;97170.13;;;11.55;59.05
9746;BME280;4912;50.836;12.958;2023-04-25T11:24:58;97176.22;;;11.59;58.25
9746;BME280;4912;50.836;12.958;2023-04-25T11:27:28;97173.28;;;11.68;58.13
9746;BME280;4912;50.836;12.958;2023-04-25T11:29:59;97179.81;;;11.65;57.98
9746;BME280;4912;50.836;12.958;2023-04-25T11:32:33;97180.63;;;11.45;57.85
9746;BME280;4912;50.836;12.958;2023-04-25T11:35:05;97186.16;;;11.20;58.46
9746;BME280;4912;50.836;12.958;2023-04-25T11:37:39;97182.94;;;11.01;59.39
9746;BME280;4912;50.836;12.958;2023-04-25T11:40:10;97202.38;;;10.86;59.97
9746;BME280;4912;50.836;12.958;2023-04-25T11:42:45;97192.47;;;10.80;60.45
9746;BME280;4912;50.836;12.958;2023-04-25T11:45:23;97191.66;;;10.74;59.93
9746;BME280;4912;50.836;12.958;2023-04-25T11:47:57;97195.59;;;10.67;59.78
9746;BME280;4912;50.836;12.958;2023-04-25T11:50:28;97198.94;;;10.71;59.85
9746;BME280;4912;50.836;12.958;2023-04-25T11:52:58;97206.03;;;10.57;59.34
9746;BME280;4912;50.836;12.958;2023-04-25T11:55:30;97199.81;;;10.62;59.44
9746;BME280;4912;50.836;12.958;2023-04-25T11:58:00;97208.53;;;10.76;59.21
9746;BME280;4912;50.836;12.958;2023-04-25T12:00:35;97205.84;;;10.81;58.78
9746;BME280;4912;50.836;12.958;2023-04-25T12:03:18;97203.34;;;10.83;58.38
9746;BME280;4912;50.836;12.958;2023-04-25T12:06:02;97208.59;;;10.81;57.62
9746;BME280;4912;50.836;12.958;2023-04-25T12:08:36;97201.13;;;10.87;57.91
9746;BME280;4912;50.836;12.958;2023-04-25T12:11:20;97205.69;;;10.90;57.40
9746;BME280;4912;50.836;12.958;2023-04-25T12:13:53;97202.31;;;11.01;58.08
9746;BME280;4912;50.836;12.958;2023-04-25T12:16:24;97207.56;;;10.99;57.48
9746;BME280;4912;50.836;12.958;2023-04-25T12:18:58;97219.13;;;10.77;57.53
9746;BME280;4912;50.836;12.958;2023-04-25T12:21:29;97217.03;;;10.72;58.60
9746;BME280;4912;50.836;12.958;2023-04-25T12:24:11;97223.31;;;10.73;58.94
9746;BME280;4912;50.836;12.958;2023-04-25T12:26:49;97217.44;;;10.65;58.55
9746;BME280;4912;50.836;12.958;2023-04-25T12:29:23;97225.47;;;10.63;58.56
9746;BME280;4912;50.836;12.958;2023-04-25T12:32:01;97219.66;;;10.61;59.76
9746;BME280;4912;50.836;12.958;2023-04-25T12:34:34;97228.91;;;10.58;59.71
9746;BME280;4912;50.836;12.958;2023-04-25T12:37:05;97220.47;;;10.47;59.66
9746;BME280;4912;50.836;12.958;2023-04-25T12:39:36;97240.69;;;10.38;60.59
9746;BME280;4912;50.836;12.958;2023-04-25T12:42:07;97237.59;;;10.31;61.67
9746;BME280;4912;50.836;12.958;2023-04-25T12:44:41;97235.22;;;10.23;61.64
9746;BME280;4912;50.836;12.958;2023-04-25T12:47:13;97249.03;;;10.23;63.31
9746;BME280;4912;50.836;12.958;2023-04-25T12:49:46;97248.53;;;10.10;65.22
9746;BME280;4912;50.836;12.958;2023-04-25T12:52:17;97247.78;;;9.95;66.09
9746;BME280;4912;50.836;12.958;2023-04-25T12:54:48;97251.59;;;9.83;66.60
9746;BME280;4912;50.836;12.958;2023-04-25T12:57:19;97254.63;;;9.85;66.48
9746;BME280;4912;50.836;12.958;2023-04-25T12:59:49;97255.59;;;9.82;66.88
9746;BME280;4912;50.836;12.958;2023-04-25T13:02:19;97262.34;;;9.81;67.05
9746;BME280;4912;50.836;12.958;2023-04-25T13:04:55;97268.53;;;9.91;68.72
9746;BME280;4912;50.836;12.958;2023-04-25T13:07:26;97259.13;;;9.97;67.91
9746;BME280;4912;50.836;12.958;2023-04-25T13:09:58;97268.06;;;9.92;67.81
9746;BME280;4912;50.836;12.958;2023-04-25T13:12:29;97265.69;;;10.14;68.43
9746;BME280;4912;50.836;12.958;2023-04-25T13:15:00;97265.69;;;10.29;67.95
9746;BME280;4912;50.836;12.958;2023-04-25T13:17:31;97267.75;;;10.49;66.83
9746;BME280;4912;50.836;12.958;2023-04-25T13:20:05;97261.19;;;10.46;65.05
9746;BME280;4912;50.836;12.958;2023-04-25T13:22:38;97260.72;;;10.48;64.37
9746;BME280;4912;50.836;12.958;2023-04-25T13:25:09;97265.56;;;10.53;63.53
9746;BME280;4912;50.836;12.958;2023-04-25T13:27:40;97266.41;;;10.59;63.11
9746;BME280;4912;50.836;12.958;2023-04-25T13:30:11;97266.00;;;10.66;63.48
9746;BME280;4912;50.836;12.958;2023-04-25T13:32:43;97273.31;;;10.84;63.58
9746;BME280;4912;50.836;12.958;2023-04-25T13:35:17;97272.41;;;10.92;61.57
9746;BME280;4912;50.836;12.958;2023-04-25T13:37:47;97274.13;;;11.10;61.63
9746;BME280;4912;50.836;12.958;2023-04-25T13:40:18;97268.38;;;11.14;60.68
9746;BME280;4912;50.836;12.958;2023-04-25T13:42:51;97261.75;;;11.05;59.67
9746;BME280;4912;50.836;12.958;2023-04-25T13:45:22;97276.09;;;11.24;59.52
9746;BME280;4912;50.836;12.958;2023-04-25T13:47:53;97277.59;;;11.45;59.05
9746;BME280;4912;50.836;12.958;2023-04-25T13:50:26;97271.78;;;11.69;58.77
9746;BME280;4912;50.836;12.958;2023-04-25T13:52:57;97266.06;;;12.67;55.83
9746;BME280;4912;50.836;12.958;2023-04-25T13:55:27;97257.25;;;13.11;55.10
9746;BME280;4912;50.836;12.958;2023-04-25T13:58:01;97260.63;;;13.32;52.41